Time;durP1;ratioP1;P1;durP2;ratioP2;P2;SDS_P1;SDS_P2;PMS_P1;PMS_P2;Temp;Humidity;BMP_temperature;BMP_pressure;BME280_temperature;BME280_humidity;BME280_pressure;Samples;Min_cycle;Max_cycle;Signal;HPM_P1;HPM_P2
2024/03/11 00:00:18;;;;;;;70.43;51.22;;;8.00;99.90;;;;;;4954507;28;20554;-74
2024/03/11 00:02:45;;;;;;;72.25;49.33;;;8.00;99.90;;;;;;4964259;28;20141;-75
2024/03/11 00:05:15;;;;;;;79.38;51.40;;;8.10;99.90;;;;;;4966508;28;20053;-72
2024/03/11 00:07:45;;;;;;;68.68;47.05;;;8.00;99.90;;;;;;4952955;28;20069;-73
2024/03/11 00:10:13;;;;;;;66.78;47.45;;;7.90;99.90;;;;;;4974992;28;20083;-74
2024/03/11 00:12:44;;;;;;;68.13;47.83;;;7.80;99.90;;;;;;4971274;28;20042;-73
2024/03/11 00:15:12;;;;;;;67.50;49.10;;;7.90;99.90;;;;;;4960969;28;20066;-73
2024/03/11 00:17:39;;;;;;;71.20;50.20;;;7.80;99.90;;;;;;4967810;28;20039;-74
2024/03/11 00:20:09;;;;;;;65.70;45.75;;;7.90;99.90;;;;;;4966634;28;20045;-74
2024/03/11 00:22:39;;;;;;;67.65;47.22;;;7.90;99.90;;;;;;4971084;28;20073;-74
2024/03/11 00:25:08;;;;;;;67.05;48.17;;;7.90;99.90;;;;;;4976428;28;20061;-74
2024/03/11 00:27:36;;;;;;;63.85;45.22;;;7.90;99.90;;;;;;4973992;28;20122;-72
2024/03/11 00:30:08;;;;;;;64.15;45.88;;;7.90;99.90;;;;;;4967148;28;20046;-72
2024/03/11 00:32:45;;;;;;;70.55;48.17;;;7.80;99.90;;;;;;4968818;28;20070;-72
2024/03/11 00:35:15;;;;;;;68.30;49.63;;;7.80;99.90;;;;;;4961589;28;20685;-74
2024/03/11 00:37:42;;;;;;;65.47;47.58;;;7.80;99.90;;;;;;4970304;28;20722;-74
2024/03/11 00:40:10;;;;;;;80.65;55.85;;;7.80;99.90;;;;;;4971085;28;20048;-74
2024/03/11 00:42:40;;;;;;;65.18;48.90;;;7.80;99.90;;;;;;4973545;28;20717;-73
2024/03/11 00:45:11;;;;;;;83.45;53.10;;;7.80;99.90;;;;;;4958406;28;20177;-73
2024/03/11 00:47:39;;;;;;;66.07;48.17;;;7.80;99.90;;;;;;4960998;28;20133;-74
2024/03/11 00:50:10;;;;;;;76.95;52.55;;;7.80;99.90;;;;;;4989036;28;20046;-73
2024/03/11 00:52:38;;;;;;;75.55;49.88;;;7.70;99.90;;;;;;4976600;28;20094;-72
2024/03/11 00:55:08;;;;;;;74.43;49.47;;;7.70;99.90;;;;;;4969993;28;20074;-73
2024/03/11 00:57:35;;;;;;;75.20;49.58;;;7.70;99.90;;;;;;4967777;28;20042;-74
2024/03/11 01:00:14;;;;;;;76.13;51.33;;;7.70;99.90;;;;;;4973837;28;20054;-74
2024/03/11 01:02:41;;;;;;;64.25;48.33;;;7.70;99.90;;;;;;4960893;28;20050;-72
2024/03/11 01:05:10;;;;;;;69.20;47.63;;;7.70;99.90;;;;;;4963005;28;20580;-74
2024/03/11 01:07:37;;;;;;;69.70;48.05;;;7.70;99.90;;;;;;4972927;28;20739;-74
2024/03/11 01:10:16;;;;;;;75.85;50.67;;;7.60;99.90;;;;;;4969656;28;20058;-74
2024/03/11 01:12:43;;;;;;;73.45;51.47;;;7.70;99.90;;;;;;4966815;28;20487;-73
2024/03/11 01:15:10;;;;;;;67.70;47.35;;;7.70;99.90;;;;;;4962612;28;20046;-73
2024/03/11 01:17:38;;;;;;;75.85;51.40;;;7.70;99.90;;;;;;4967063;28;20057;-71
2024/03/11 01:20:09;;;;;;;67.47;48.13;;;7.80;99.90;;;;;;4972368;28;20061;-71
2024/03/11 01:22:37;;;;;;;69.63;48.25;;;7.80;99.90;;;;;;4960971;28;20046;-73
2024/03/11 01:25:05;;;;;;;65.10;48.20;;;7.90;99.90;;;;;;4970092;28;20539;-74
2024/03/11 01:27:33;;;;;;;67.15;48.30;;;7.80;99.90;;;;;;4968423;28;20599;-72
2024/03/11 01:30:02;;;;;;;68.60;46.75;;;7.80;99.90;;;;;;4967449;28;20136;-73
2024/03/11 01:32:30;;;;;;;69.57;49.33;;;7.80;99.90;;;;;;4971401;28;21049;-73
2024/03/11 01:34:58;;;;;;;63.55;45.35;;;7.80;99.90;;;;;;4965176;28;20050;-72
2024/03/11 01:37:27;;;;;;;63.95;46.67;;;7.70;99.90;;;;;;4972718;28;20561;-72
2024/03/11 01:39:54;;;;;;;68.25;46.55;;;7.60;99.90;;;;;;4963350;28;20042;-72
2024/03/11 01:42:21;;;;;;;72.32;49.95;;;7.60;99.90;;;;;;4970472;28;20042;-72
2024/03/11 01:44:50;;;;;;;71.68;49.40;;;7.60;99.90;;;;;;4973241;28;20484;-73
2024/03/11 01:47:23;;;;;;;69.25;48.20;;;7.60;99.90;;;;;;4974628;28;20080;-73
2024/03/11 01:49:53;;;;;;;69.80;48.00;;;7.60;99.90;;;;;;4968472;28;20046;-70
2024/03/11 01:52:27;;;;;;;67.65;47.88;;;7.60;99.90;;;;;;4990550;28;20050;-71
2024/03/11 01:54:55;;;;;;;74.33;48.57;;;7.60;99.90;;;;;;4973546;28;20091;-72
2024/03/11 01:57:26;;;;;;;73.32;49.15;;;7.60;99.90;;;;;;4988074;28;20329;-72
2024/03/11 01:59:54;;;;;;;69.22;50.03;;;7.60;99.90;;;;;;4975640;28;20522;-72
2024/03/11 02:02:21;;;;;;;71.57;48.20;;;7.60;99.90;;;;;;4961208;28;20046;-73
2024/03/11 02:04:49;;;;;;;66.90;48.58;;;7.70;99.90;;;;;;4966779;28;20043;-72
2024/03/11 02:07:19;;;;;;;68.10;47.97;;;7.70;99.90;;;;;;4972855;28;20054;-73
2024/03/11 02:09:47;;;;;;;67.35;48.22;;;7.60;99.90;;;;;;4966547;28;20133;-72
2024/03/11 02:12:17;;;;;;;67.00;47.78;;;7.60;99.90;;;;;;4963346;28;20145;-72
2024/03/11 02:14:46;;;;;;;73.15;48.45;;;7.60;99.90;;;;;;4968540;28;20648;-73
2024/03/11 02:17:15;;;;;;;66.55;47.45;;;7.60;99.90;;;;;;4973986;28;20049;-73
2024/03/11 02:19:42;;;;;;;67.57;47.60;;;7.50;99.90;;;;;;4944668;28;20038;-71
2024/03/11 02:22:09;;;;;;;67.20;47.28;;;7.60;99.90;;;;;;4976431;28;20048;-72
2024/03/11 02:24:36;;;;;;;68.40;46.85;;;7.60;99.90;;;;;;4976404;28;20153;-72
2024/03/11 02:27:03;;;;;;;65.85;46.33;;;7.60;99.90;;;;;;4966206;28;20073;-73
2024/03/11 02:29:31;;;;;;;68.75;48.13;;;7.60;99.90;;;;;;4963329;28;20267;-73
2024/03/11 02:31:58;;;;;;;73.28;49.95;;;7.60;99.90;;;;;;4969198;28;20413;-71
2024/03/11 02:34:26;;;;;;;65.40;45.85;;;7.60;99.90;;;;;;4963093;28;20058;-72
2024/03/11 02:36:55;;;;;;;70.78;48.42;;;7.60;99.90;;;;;;4968318;28;20121;-72
2024/03/11 02:39:22;;;;;;;72.00;49.72;;;7.70;99.90;;;;;;4964111;28;20222;-73
2024/03/11 02:41:50;;;;;;;75.78;49.30;;;7.70;99.90;;;;;;4951150;28;20549;-74
2024/03/11 02:44:17;;;;;;;79.18;49.70;;;7.70;99.90;;;;;;4968956;28;20066;-73
2024/03/11 02:46:44;;;;;;;77.95;50.33;;;7.70;99.90;;;;;;4955067;28;20050;-75
2024/03/11 02:49:12;;;;;;;75.28;49.75;;;7.70;99.90;;;;;;4973446;28;20621;-74
2024/03/11 02:51:42;;;;;;;77.03;50.63;;;7.80;99.90;;;;;;4978814;28;20046;-77
2024/03/11 02:54:09;;;;;;;85.82;51.60;;;7.80;99.90;;;;;;4971569;28;20069;-77
2024/03/11 02:56:37;;;;;;;79.85;49.17;;;7.70;99.90;;;;;;4954741;28;20137;-76
2024/03/11 02:59:05;;;;;;;77.13;50.60;;;7.50;99.90;;;;;;4971024;28;20055;-77
2024/03/11 03:01:32;;;;;;;82.97;51.50;;;7.40;99.90;;;;;;4968950;28;20622;-75
2024/03/11 03:03:59;;;;;;;77.38;48.47;;;7.30;99.90;;;;;;4978341;28;20070;-74
2024/03/11 03:06:29;;;;;;;83.30;51.92;;;7.30;99.90;;;;;;4949941;28;20047;-74
2024/03/11 03:08:56;;;;;;;89.40;51.75;;;7.30;99.90;;;;;;4971032;28;20057;-74
2024/03/11 03:11:24;;;;;;;93.05;54.30;;;7.30;99.90;;;;;;4958462;28;20046;-75
2024/03/11 03:13:51;;;;;;;91.47;52.30;;;7.30;99.90;;;;;;4953327;28;20051;-75
2024/03/11 03:16:19;;;;;;;89.95;51.20;;;7.40;99.90;;;;;;4981049;28;20046;-76
2024/03/11 03:18:46;;;;;;;91.50;54.15;;;7.30;99.90;;;;;;4964760;28;20053;-76
2024/03/11 03:21:13;;;;;;;91.68;53.83;;;7.30;99.90;;;;;;4971863;28;20141;-75
2024/03/11 03:23:40;;;;;;;99.03;52.53;;;7.30;99.90;;;;;;4961062;28;20113;-76
2024/03/11 03:26:07;;;;;;;93.82;53.40;;;7.20;99.90;;;;;;4982858;28;20046;-74
2024/03/11 03:28:35;;;;;;;94.47;55.60;;;7.30;99.90;;;;;;4974193;28;20054;-74
2024/03/11 03:31:04;;;;;;;95.57;54.65;;;7.30;99.90;;;;;;4952367;28;20061;-75
2024/03/11 03:33:32;;;;;;;88.18;51.63;;;7.30;99.90;;;;;;4975008;28;20066;-74
2024/03/11 03:35:59;;;;;;;87.82;55.25;;;7.40;99.90;;;;;;4952333;28;20054;-75
2024/03/11 03:38:26;;;;;;;86.30;51.13;;;7.30;99.90;;;;;;4975977;28;20048;-75
2024/03/11 03:40:53;;;;;;;94.22;51.33;;;7.20;99.90;;;;;;4971028;28;20046;-75
2024/03/11 03:43:20;;;;;;;95.47;54.00;;;7.20;99.90;;;;;;4956800;28;20089;-75
2024/03/11 03:45:48;;;;;;;92.63;50.42;;;7.20;99.90;;;;;;4973166;28;20263;-75
2024/03/11 03:48:16;;;;;;;96.28;53.28;;;7.10;99.90;;;;;;4990427;28;20046;-75
2024/03/11 03:50:43;;;;;;;94.68;52.97;;;7.00;99.90;;;;;;4967773;28;20042;-75
2024/03/11 03:53:10;;;;;;;100.03;54.53;;;7.00;99.90;;;;;;4969944;28;20054;-75
2024/03/11 03:55:38;;;;;;;99.18;54.22;;;7.10;99.90;;;;;;4971277;28;20694;-75
2024/03/11 03:58:07;;;;;;;102.20;52.75;;;7.10;99.90;;;;;;4973269;28;20654;-76
2024/03/11 04:00:35;;;;;;;95.95;51.63;;;7.10;99.90;;;;;;4971079;28;20046;-78
2024/03/11 04:03:05;;;;;;;93.97;51.60;;;7.10;99.90;;;;;;4970431;28;20042;-75
2024/03/11 04:05:32;;;;;;;93.10;51.28;;;7.10;99.90;;;;;;4968718;28;20054;-75
2024/03/11 04:08:01;;;;;;;98.22;56.28;;;7.10;99.90;;;;;;4956169;28;20046;-76
2024/03/11 04:10:29;;;;;;;96.15;53.40;;;7.10;99.90;;;;;;4965653;28;20054;-76
2024/03/11 04:12:58;;;;;;;97.13;52.58;;;7.10;99.90;;;;;;4948498;28;20050;-76
2024/03/11 04:15:29;;;;;;;103.30;54.88;;;7.10;99.90;;;;;;4972758;28;20562;-77
2024/03/11 04:17:57;;;;;;;93.18;51.92;;;7.10;99.90;;;;;;4981197;28;20074;-76
2024/03/11 04:20:27;;;;;;;106.65;56.55;;;7.00;99.90;;;;;;4977405;28;20709;-75
2024/03/11 04:22:56;;;;;;;96.53;53.22;;;7.10;99.90;;;;;;4954751;28;20046;-76
2024/03/11 04:25:28;;;;;;;98.15;56.95;;;7.10;99.90;;;;;;4972452;28;20853;-76
2024/03/11 04:27:56;;;;;;;98.90;54.40;;;7.20;99.90;;;;;;4975175;28;20054;-76
2024/03/11 04:30:31;;;;;;;99.47;55.05;;;7.20;99.90;;;;;;4971935;28;20058;-76
2024/03/11 04:32:59;;;;;;;100.53;56.08;;;7.20;99.90;;;;;;4975956;28;20361;-76
2024/03/11 04:35:31;;;;;;;98.63;54.25;;;7.20;99.90;;;;;;4972321;28;20057;-76
2024/03/11 04:38:04;;;;;;;97.43;53.20;;;7.20;99.90;;;;;;4972328;28;20053;-75
2024/03/11 04:40:34;;;;;;;104.38;55.55;;;7.20;99.90;;;;;;4971460;28;20050;-75
2024/03/11 04:43:03;;;;;;;97.80;53.63;;;7.10;99.90;;;;;;4978116;28;20202;-76
2024/03/11 04:45:30;;;;;;;105.22;54.88;;;7.10;99.90;;;;;;4977882;28;20057;-75
2024/03/11 04:48:00;;;;;;;105.05;55.90;;;7.10;99.90;;;;;;4976942;28;20129;-75
2024/03/11 04:50:30;;;;;;;101.70;54.78;;;7.00;99.90;;;;;;4963011;28;20519;-75
2024/03/11 04:53:03;;;;;;;110.03;56.60;;;7.00;99.90;;;;;;4972248;28;20051;-73
2024/03/11 04:55:32;;;;;;;111.20;58.47;;;7.00;99.90;;;;;;4976731;28;20077;-75
2024/03/11 04:58:00;;;;;;;113.80;59.25;;;7.00;99.90;;;;;;4974483;28;20042;-75
2024/03/11 05:00:28;;;;;;;111.70;58.20;;;7.00;99.90;;;;;;4996548;28;20062;-75
2024/03/11 05:02:58;;;;;;;114.07;61.65;;;7.00;99.90;;;;;;4983782;28;20409;-76
2024/03/11 05:05:26;;;;;;;113.93;59.47;;;7.00;99.90;;;;;;4983067;28;20050;-77
2024/03/11 05:07:54;;;;;;;112.10;59.10;;;7.10;99.90;;;;;;4956069;28;20049;-76
2024/03/11 05:10:21;;;;;;;118.22;60.17;;;7.00;99.90;;;;;;4976043;28;20038;-75
2024/03/11 05:12:49;;;;;;;117.38;60.20;;;7.00;99.90;;;;;;4971185;28;20054;-75
2024/03/11 05:15:17;;;;;;;109.63;54.70;;;7.10;99.90;;;;;;4958342;28;20852;-75
2024/03/11 05:17:44;;;;;;;112.95;59.55;;;7.00;99.90;;;;;;4975219;28;20082;-75
2024/03/11 05:20:14;;;;;;;114.57;59.15;;;7.00;99.90;;;;;;4969007;28;20054;-78
2024/03/11 05:22:46;;;;;;;115.50;59.72;;;7.00;99.90;;;;;;4963637;28;20177;-76
2024/03/11 05:25:17;;;;;;;121.68;61.65;;;7.00;99.90;;;;;;4972631;28;20137;-77
2024/03/11 05:27:46;;;;;;;120.30;59.05;;;7.00;99.90;;;;;;4981128;28;20543;-76
2024/03/11 05:30:15;;;;;;;124.28;63.50;;;7.00;99.90;;;;;;4972918;28;20062;-76
2024/03/11 05:32:43;;;;;;;128.23;64.07;;;7.00;99.90;;;;;;4974044;28;20086;-75
2024/03/11 05:35:11;;;;;;;127.63;63.55;;;7.00;99.90;;;;;;4972060;28;20057;-76
2024/03/11 05:37:38;;;;;;;131.00;65.97;;;7.00;99.90;;;;;;4962390;28;20180;-76
2024/03/11 05:40:06;;;;;;;127.63;63.42;;;7.00;99.90;;;;;;4974561;28;20076;-75
2024/03/11 05:42:34;;;;;;;138.02;65.78;;;7.00;99.90;;;;;;4968820;28;20137;-74
2024/03/11 05:45:02;;;;;;;128.68;64.32;;;7.10;99.90;;;;;;4976169;28;20062;-74
2024/03/11 05:47:30;;;;;;;129.18;67.00;;;7.10;99.90;;;;;;4974886;28;20050;-75
2024/03/11 05:49:57;;;;;;;136.82;65.93;;;7.10;99.90;;;;;;4978575;28;20133;-73
2024/03/11 05:52:25;;;;;;;140.10;67.55;;;7.10;99.90;;;;;;4974700;28;20777;-73
2024/03/11 05:54:53;;;;;;;137.23;68.40;;;7.10;99.90;;;;;;4979399;28;20034;-75
2024/03/11 05:57:29;;;;;;;134.95;63.33;;;7.00;99.90;;;;;;4963681;28;20043;-74
2024/03/11 05:59:57;;;;;;;140.55;68.85;;;7.00;99.90;;;;;;4955932;28;20703;-75
2024/03/11 06:02:25;;;;;;;133.68;65.65;;;7.00;99.90;;;;;;4969917;28;20049;-76
2024/03/11 06:04:52;;;;;;;135.07;63.58;;;7.00;99.90;;;;;;4947497;28;20074;-76
2024/03/11 06:07:23;;;;;;;130.25;64.82;;;7.00;99.90;;;;;;4974093;28;20686;-74
2024/03/11 06:09:51;;;;;;;148.35;67.78;;;7.00;99.90;;;;;;4963960;28;20128;-74
2024/03/11 06:12:22;;;;;;;131.95;63.95;;;7.00;99.90;;;;;;4965696;28;20046;-73
2024/03/11 06:14:51;;;;;;;146.13;65.05;;;6.90;99.90;;;;;;4979716;28;20061;-74
2024/03/11 06:17:19;;;;;;;141.20;67.40;;;6.90;99.90;;;;;;4970280;28;20046;-73
2024/03/11 06:19:46;;;;;;;145.32;70.68;;;7.00;99.90;;;;;;4971441;28;20547;-75
2024/03/11 06:22:15;;;;;;;137.10;63.85;;;7.00;99.90;;;;;;4969504;28;20051;-73
2024/03/11 06:24:43;;;;;;;136.18;65.28;;;7.00;99.90;;;;;;4968313;28;20046;-73
2024/03/11 06:27:11;;;;;;;137.95;66.53;;;7.00;99.90;;;;;;4961949;28;20532;-73
2024/03/11 06:29:39;;;;;;;146.65;71.50;;;7.00;99.90;;;;;;4966894;28;20136;-74
2024/03/11 06:32:09;;;;;;;149.88;70.43;;;7.10;99.90;;;;;;4968647;28;20048;-74
2024/03/11 06:34:37;;;;;;;145.35;71.80;;;7.10;99.90;;;;;;4971466;28;20464;-73
2024/03/11 06:37:05;;;;;;;144.48;73.22;;;7.10;99.90;;;;;;4969765;28;20734;-75
2024/03/11 06:39:32;;;;;;;149.50;71.32;;;7.20;99.90;;;;;;4969695;28;20042;-73
2024/03/11 06:42:01;;;;;;;136.57;70.72;;;7.20;99.90;;;;;;4969264;28;20039;-72
2024/03/11 06:44:29;;;;;;;141.48;68.15;;;7.10;99.90;;;;;;4972494;28;20047;-74
2024/03/11 06:46:59;;;;;;;142.95;72.25;;;7.20;99.90;;;;;;4963508;28;20042;-73
2024/03/11 06:49:30;;;;;;;147.02;72.55;;;7.20;99.90;;;;;;4974727;28;20112;-74
2024/03/11 06:51:57;;;;;;;134.75;63.92;;;7.30;99.90;;;;;;4968175;28;20038;-74
2024/03/11 06:54:24;;;;;;;140.27;67.57;;;7.20;99.90;;;;;;4969158;28;20047;-73
2024/03/11 06:56:51;;;;;;;146.30;69.47;;;7.20;99.90;;;;;;4975958;28;20042;-75
2024/03/11 06:59:18;;;;;;;141.52;67.60;;;7.20;99.90;;;;;;4967215;28;20042;-73
2024/03/11 07:01:45;;;;;;;136.07;64.80;;;7.20;99.90;;;;;;4969936;28;20034;-73
2024/03/11 07:04:12;;;;;;;125.72;64.32;;;7.20;99.90;;;;;;4972424;28;20267;-74
2024/03/11 07:06:40;;;;;;;133.13;64.97;;;7.30;99.90;;;;;;4976547;28;20081;-73
2024/03/11 07:09:07;;;;;;;150.82;70.78;;;7.30;99.90;;;;;;4972816;28;20046;-74
2024/03/11 07:11:34;;;;;;;142.63;70.60;;;7.50;99.90;;;;;;4976867;28;20136;-74
2024/03/11 07:14:02;;;;;;;134.48;69.13;;;7.50;99.90;;;;;;4972068;28;20077;-72
2024/03/11 07:16:31;;;;;;;137.90;67.57;;;7.40;99.90;;;;;;4983272;28;20451;-74
2024/03/11 07:18:59;;;;;;;137.48;69.82;;;7.50;99.90;;;;;;4971914;28;20054;-72
2024/03/11 07:21:28;;;;;;;141.90;69.70;;;7.50;99.90;;;;;;4972150;28;20138;-74
2024/03/11 07:23:55;;;;;;;148.07;76.38;;;7.50;99.90;;;;;;4971080;28;20050;-74
2024/03/11 07:26:23;;;;;;;139.40;70.32;;;7.60;99.90;;;;;;4956803;28;20056;-72
2024/03/11 07:28:50;;;;;;;136.60;67.53;;;7.60;99.90;;;;;;4975656;28;20093;-74
2024/03/11 07:31:17;;;;;;;140.52;68.25;;;7.60;99.90;;;;;;4967895;28;21192;-74
2024/03/11 07:33:48;;;;;;;133.13;68.90;;;7.60;99.90;;;;;;4971665;28;20120;-72
2024/03/11 07:36:16;;;;;;;134.75;67.65;;;7.60;99.90;;;;;;4965651;28;20042;-73
2024/03/11 07:38:44;;;;;;;138.80;68.57;;;7.60;99.90;;;;;;4979260;28;20392;-72
2024/03/11 07:41:11;;;;;;;133.73;68.15;;;7.60;99.90;;;;;;4969479;28;20094;-71
2024/03/11 07:43:38;;;;;;;134.95;70.18;;;7.60;99.90;;;;;;4971087;28;20050;-74
2024/03/11 07:46:06;;;;;;;127.75;60.50;;;7.60;99.90;;;;;;4962373;28;20138;-71
2024/03/11 07:48:33;;;;;;;126.93;62.25;;;7.80;99.90;;;;;;4974470;28;20208;-71
2024/03/11 07:51:01;;;;;;;122.20;62.13;;;7.70;99.90;;;;;;4969865;28;20055;-74
2024/03/11 07:53:29;;;;;;;121.53;64.45;;;7.70;99.90;;;;;;4961419;28;20050;-72
2024/03/11 07:55:56;;;;;;;124.60;61.92;;;7.70;99.90;;;;;;4976126;28;20050;-72
2024/03/11 07:58:22;;;;;;;127.97;64.35;;;7.80;99.90;;;;;;4972631;28;20123;-73
2024/03/11 08:00:49;;;;;;;117.28;60.58;;;7.80;99.90;;;;;;4977400;28;20050;-72
2024/03/11 08:03:19;;;;;;;118.20;61.17;;;7.80;99.90;;;;;;4967842;28;20116;-73
2024/03/11 08:05:46;;;;;;;110.07;56.40;;;7.80;99.90;;;;;;4965676;28;20124;-73
2024/03/11 08:08:17;;;;;;;102.35;52.05;;;7.90;99.90;;;;;;4981582;28;20073;-73
2024/03/11 08:10:50;;;;;;;104.70;55.83;;;7.90;99.90;;;;;;4966130;28;20130;-73
2024/03/11 08:13:18;;;;;;;116.38;57.85;;;7.80;99.90;;;;;;4949110;28;20050;-73
2024/03/11 08:15:48;;;;;;;108.32;53.35;;;7.80;99.90;;;;;;4955649;28;20047;-74
2024/03/11 08:18:16;;;;;;;103.70;53.13;;;7.90;99.90;;;;;;4973825;28;20062;-72
2024/03/11 08:20:44;;;;;;;105.55;55.83;;;7.90;99.90;;;;;;4958486;28;20056;-72
2024/03/11 08:23:11;;;;;;;100.70;51.45;;;7.90;99.90;;;;;;4965628;28;20085;-73
2024/03/11 08:25:44;;;;;;;100.45;51.17;;;8.00;99.90;;;;;;4973936;28;20228;-73
2024/03/11 08:28:14;;;;;;;98.55;49.47;;;8.00;99.90;;;;;;4957739;28;22076;-72
2024/03/11 08:30:43;;;;;;;98.50;51.53;;;7.90;99.90;;;;;;4958362;28;20053;-73
2024/03/11 08:33:12;;;;;;;86.00;47.13;;;8.00;99.90;;;;;;4960144;28;20165;-73
2024/03/11 08:35:44;;;;;;;80.10;44.92;;;8.10;99.90;;;;;;4963611;28;20514;-73
2024/03/11 08:38:11;;;;;;;87.60;44.78;;;8.00;99.90;;;;;;4970292;28;20054;-72
2024/03/11 08:40:38;;;;;;;73.45;41.90;;;8.10;99.90;;;;;;4975396;28;20611;-72
2024/03/11 08:43:05;;;;;;;64.05;36.50;;;8.10;99.90;;;;;;4967544;28;20154;-72
2024/03/11 08:45:33;;;;;;;66.07;39.30;;;8.10;99.90;;;;;;4951846;28;20077;-73
2024/03/11 08:48:02;;;;;;;59.83;36.65;;;8.10;99.90;;;;;;4977450;28;20571;-71
2024/03/11 08:50:30;;;;;;;47.70;29.42;;;8.20;99.90;;;;;;4995275;28;20065;-72
2024/03/11 08:53:00;;;;;;;45.20;29.77;;;8.20;99.90;;;;;;4976481;28;20236;-73
2024/03/11 08:55:28;;;;;;;46.33;29.23;;;8.20;99.90;;;;;;4973396;28;20054;-72
2024/03/11 08:57:58;;;;;;;40.33;28.05;;;8.30;99.90;;;;;;4982329;28;20049;-73
2024/03/11 09:00:27;;;;;;;33.15;24.20;;;8.20;99.90;;;;;;4968941;28;21510;-72
2024/03/11 09:02:55;;;;;;;35.58;26.33;;;8.20;99.90;;;;;;4974427;28;20054;-73
2024/03/11 09:05:22;;;;;;;33.30;23.95;;;8.10;99.90;;;;;;4967757;28;20843;-72
2024/03/11 09:07:51;;;;;;;28.85;22.17;;;8.20;99.90;;;;;;4970168;28;20066;-73
2024/03/11 09:10:19;;;;;;;24.35;21.23;;;8.10;99.90;;;;;;4968224;28;20192;-72
2024/03/11 09:12:47;;;;;;;28.92;22.92;;;8.20;99.90;;;;;;4974359;28;20734;-72
2024/03/11 09:15:17;;;;;;;25.50;21.20;;;8.20;99.90;;;;;;4969648;28;20198;-72
2024/03/11 09:17:50;;;;;;;24.88;21.83;;;8.20;99.90;;;;;;4973221;28;20038;-73
2024/03/11 09:20:20;;;;;;;22.63;18.08;;;8.10;99.90;;;;;;4959390;28;20046;-73
2024/03/11 09:22:50;;;;;;;19.90;17.88;;;8.10;99.90;;;;;;4969195;28;20050;-72
2024/03/11 09:25:24;;;;;;;21.83;19.52;;;8.10;99.90;;;;;;4972818;28;20093;-72
2024/03/11 09:28:03;;;;;;;21.97;19.23;;;8.00;99.90;;;;;;4970914;28;20050;-73
2024/03/11 09:30:35;;;;;;;20.60;18.35;;;7.90;99.90;;;;;;4963300;28;20277;-72
2024/03/11 09:33:05;;;;;;;21.38;18.65;;;7.90;99.90;;;;;;4974025;28;20046;-70
2024/03/11 09:35:32;;;;;;;20.95;18.10;;;7.80;99.90;;;;;;4960513;28;20041;-72
2024/03/11 09:38:00;;;;;;;21.02;17.13;;;7.80;99.90;;;;;;4978215;28;20046;-68
2024/03/11 09:40:28;;;;;;;25.15;19.10;;;7.80;99.90;;;;;;4968685;28;20644;-72
2024/03/11 09:42:58;;;;;;;22.20;17.45;;;7.70;99.90;;;;;;4968871;28;20046;-71
2024/03/11 09:45:29;;;;;;;21.33;15.98;;;7.60;99.90;;;;;;4964330;28;20254;-71
2024/03/11 09:48:00;;;;;;;24.35;18.92;;;7.60;99.90;;;;;;4974617;28;20042;-71
2024/03/11 09:50:32;;;;;;;21.00;16.27;;;7.60;99.90;;;;;;4964652;28;20145;-72
2024/03/11 09:53:06;;;;;;;23.52;18.15;;;7.50;99.90;;;;;;4953861;28;20066;-71
2024/03/11 09:55:35;;;;;;;20.25;16.83;;;7.50;99.90;;;;;;4959192;28;20897;-71
2024/03/11 09:58:06;;;;;;;20.13;15.60;;;7.50;99.90;;;;;;4957486;28;20081;-71
2024/03/11 10:00:35;;;;;;;20.67;16.10;;;7.50;99.90;;;;;;4967716;28;20522;-71
2024/03/11 10:03:11;;;;;;;20.08;14.07;;;7.50;99.90;;;;;;4970264;28;20152;-73
2024/03/11 10:05:39;;;;;;;18.48;14.18;;;7.50;99.90;;;;;;4942852;28;20038;-73
2024/03/11 10:08:06;;;;;;;21.85;15.07;;;7.50;99.90;;;;;;4970275;28;20042;-70
2024/03/11 10:10:34;;;;;;;19.65;15.00;;;7.50;99.90;;;;;;4956831;28;20069;-73
2024/03/11 10:13:04;;;;;;;16.63;14.30;;;7.50;99.90;;;;;;4969235;28;20058;-72
2024/03/11 10:15:33;;;;;;;20.45;16.80;;;7.50;99.90;;;;;;4965068;28;20978;-72
2024/03/11 10:18:14;;;;;;;20.88;15.40;;;7.60;99.90;;;;;;4973504;28;20054;-71
2024/03/11 10:20:43;;;;;;;20.17;17.38;;;7.60;99.90;;;;;;4972588;28;20050;-71
2024/03/11 10:23:18;;;;;;;22.95;15.07;;;7.50;99.90;;;;;;4964626;28;20049;-72
2024/03/11 10:25:46;;;;;;;19.58;14.93;;;7.40;99.90;;;;;;4962097;28;20701;-70
2024/03/11 10:28:31;;;;;;;16.42;13.25;;;7.40;99.90;;;;;;4966044;28;20050;-71
2024/03/11 10:30:58;;;;;;;21.05;17.30;;;7.50;99.90;;;;;;4967439;28;20047;-72
2024/03/11 10:33:32;;;;;;;20.17;17.20;;;7.60;99.90;;;;;;4951077;28;20157;-72
2024/03/11 10:36:11;;;;;;;19.15;17.15;;;7.80;99.90;;;;;;4962642;28;20050;-72
2024/03/11 10:38:38;;;;;;;17.80;15.95;;;7.90;99.90;;;;;;4971775;28;20053;-71
2024/03/11 10:41:22;;;;;;;20.00;17.88;;;8.00;99.90;;;;;;4969119;28;20046;-71
2024/03/11 10:43:52;;;;;;;22.40;20.33;;;8.10;99.90;;;;;;4983011;28;20034;-72
2024/03/11 10:46:22;;;;;;;20.58;18.85;;;8.10;99.90;;;;;;4957433;28;20512;-71
2024/03/11 10:48:51;;;;;;;20.35;18.55;;;8.10;99.90;;;;;;4968376;28;20042;-70
2024/03/11 10:51:21;;;;;;;21.08;19.38;;;8.10;99.90;;;;;;4964938;28;20078;-69
2024/03/11 10:53:53;;;;;;;22.35;20.38;;;8.10;99.90;;;;;;4962568;28;20148;-72
2024/03/11 10:56:23;;;;;;;21.83;20.00;;;8.20;99.90;;;;;;4965312;28;20053;-71
2024/03/11 10:58:55;;;;;;;21.25;19.70;;;8.20;99.90;;;;;;4970848;28;20872;-72
2024/03/11 11:01:33;;;;;;;21.95;20.15;;;8.20;99.90;;;;;;4961367;28;20124;-69
2024/03/11 11:04:13;;;;;;;19.98;18.45;;;8.30;99.90;;;;;;4961105;28;20176;-72
2024/03/11 11:06:46;;;;;;;19.48;17.98;;;8.30;99.90;;;;;;4949932;28;20744;-72
2024/03/11 11:09:14;;;;;;;18.00;16.70;;;8.40;99.90;;;;;;4967653;28;20431;-71
2024/03/11 11:11:51;;;;;;;20.60;19.05;;;8.50;99.90;;;;;;4968895;28;20084;-72
2024/03/11 11:14:19;;;;;;;20.83;19.42;;;8.80;99.90;;;;;;4965104;28;20058;-70
2024/03/11 11:16:49;;;;;;;21.38;19.95;;;9.30;99.90;;;;;;4972363;28;20125;-71
2024/03/11 11:19:22;;;;;;;21.75;20.50;;;9.80;99.90;;;;;;4962241;28;20054;-71
2024/03/11 11:21:52;;;;;;;22.48;21.27;;;9.90;99.90;;;;;;4967118;28;20138;-72
2024/03/11 11:24:32;;;;;;;22.73;21.33;;;9.80;99.90;;;;;;4952200;28;20145;-71
2024/03/11 11:27:05;;;;;;;22.63;21.42;;;9.50;99.90;;;;;;4967353;28;20651;-71
2024/03/11 11:29:34;;;;;;;21.38;20.27;;;9.40;99.90;;;;;;4942978;28;20038;-72
2024/03/11 11:32:06;;;;;;;24.48;23.23;;;9.30;99.90;;;;;;4969039;28;20172;-71
2024/03/11 11:34:46;;;;;;;25.27;24.08;;;9.20;99.90;;;;;;4956525;28;20181;-72
2024/03/11 11:37:31;;;;;;;27.85;26.45;;;9.10;99.90;;;;;;4937968;28;20066;-72
2024/03/11 11:40:31;;;;;;;26.45;25.15;;;9.00;99.90;;;;;;4954252;28;20768;-70
2024/03/11 11:42:59;;;;;;;26.98;25.67;;;8.90;99.90;;;;;;4969535;28;20523;-71
2024/03/11 11:45:47;;;;;;;27.85;26.45;;;8.90;99.90;;;;;;4951546;28;20046;-71
2024/03/11 11:48:25;;;;;;;27.90;26.60;;;9.00;99.90;;;;;;4963989;28;20057;-71
2024/03/11 11:50:58;;;;;;;28.85;27.42;;;9.00;99.90;;;;;;4992219;28;20062;-70
2024/03/11 11:53:29;;;;;;;28.30;26.92;;;9.00;99.90;;;;;;4957595;28;20082;-71
2024/03/11 11:55:57;;;;;;;27.50;26.20;;;9.00;99.90;;;;;;4966684;28;20046;-71
2024/03/11 11:58:25;;;;;;;28.48;26.88;;;9.10;99.90;;;;;;4964227;28;20162;-71
2024/03/11 12:01:01;;;;;;;26.83;25.58;;;9.00;99.90;;;;;;4966236;28;20134;-72
2024/03/11 12:03:34;;;;;;;29.27;27.70;;;8.90;99.90;;;;;;4961636;28;20470;-71
2024/03/11 12:06:17;;;;;;;32.90;30.92;;;8.90;99.90;;;;;;4966816;28;20050;-71
2024/03/11 12:08:50;;;;;;;25.77;24.48;;;8.90;99.90;;;;;;4962828;28;20053;-71
2024/03/11 12:11:21;;;;;;;25.35;24.15;;;8.90;99.90;;;;;;4965905;28;20042;-72
2024/03/11 12:13:58;;;;;;;28.90;27.60;;;8.90;99.90;;;;;;4949307;28;20054;-72
2024/03/11 12:16:27;;;;;;;29.35;27.95;;;9.10;99.90;;;;;;4961618;28;20058;-70
2024/03/11 12:19:02;;;;;;;24.20;23.00;;;9.00;99.90;;;;;;4967299;28;20046;-71
2024/03/11 12:21:31;;;;;;;23.60;22.23;;;8.90;99.90;;;;;;4960778;28;20630;-73
2024/03/11 12:24:00;;;;;;;23.40;22.30;;;8.80;99.90;;;;;;4969991;28;20647;-71
2024/03/11 12:26:27;;;;;;;26.40;25.20;;;8.60;99.90;;;;;;4968729;28;21159;-70
2024/03/11 12:29:08;;;;;;;22.50;21.40;;;8.50;99.90;;;;;;4967542;28;20062;-72
2024/03/11 12:31:36;;;;;;;22.90;21.75;;;8.50;99.90;;;;;;4980750;28;20120;-68
2024/03/11 12:34:09;;;;;;;22.52;21.42;;;8.60;99.90;;;;;;4951792;28;20050;-69
2024/03/11 12:36:46;;;;;;;23.33;22.20;;;8.60;99.90;;;;;;4963988;28;20053;-69
2024/03/11 12:39:27;;;;;;;23.10;21.92;;;8.50;99.90;;;;;;5001810;28;20166;-71
2024/03/11 12:41:56;;;;;;;22.30;21.20;;;8.50;99.90;;;;;;4968403;28;20773;-71
2024/03/11 12:44:25;;;;;;;21.52;20.50;;;8.50;99.90;;;;;;4943948;28;20143;-70